sensor_id;sensor_type;location;lat;lon;timestamp;P1;durP1;ratioP1;P2;durP2;ratioP2
55993;SDS011;67425;52.126;20.638;2023-04-19T00:02:15;9.95;;;7.28;;
55993;SDS011;67425;52.126;20.638;2023-04-19T00:04:42;8.70;;;4.55;;
55993;SDS011;67425;52.126;20.638;2023-04-19T00:07:08;7.45;;;5.53;;
55993;SDS011;67425;52.126;20.638;2023-04-19T00:09:34;10.02;;;6.40;;
55993;SDS011;67425;52.126;20.638;2023-04-19T00:11:59;9.50;;;6.15;;
55993;SDS011;67425;52.126;20.638;2023-04-19T00:14:25;7.97;;;5.50;;
55993;SDS011;67425;52.126;20.638;2023-04-19T00:16:50;13.65;;;7.40;;
55993;SDS011;67425;52.126;20.638;2023-04-19T00:19:16;5.82;;;4.28;;
55993;SDS011;67425;52.126;20.638;2023-04-19T00:21:41;8.80;;;3.38;;
55993;SDS011;67425;52.126;20.638;2023-04-19T00:24:07;11.95;;;5.95;;
55993;SDS011;67425;52.126;20.638;2023-04-19T00:26:32;8.10;;;5.15;;
55993;SDS011;67425;52.126;20.638;2023-04-19T00:28:57;12.30;;;8.00;;
55993;SDS011;67425;52.126;20.638;2023-04-19T00:31:23;11.60;;;8.13;;
55993;SDS011;67425;52.126;20.638;2023-04-19T00:33:48;8.55;;;6.45;;
55993;SDS011;67425;52.126;20.638;2023-04-19T00:36:14;9.75;;;5.35;;
55993;SDS011;67425;52.126;20.638;2023-04-19T00:38:39;6.95;;;4.65;;
55993;SDS011;67425;52.126;20.638;2023-04-19T00:41:04;7.00;;;3.63;;
55993;SDS011;67425;52.126;20.638;2023-04-19T00:43:30;7.88;;;4.35;;
55993;SDS011;67425;52.126;20.638;2023-04-19T00:45:55;5.00;;;3.10;;
55993;SDS011;67425;52.126;20.638;2023-04-19T00:48:20;6.97;;;4.97;;
55993;SDS011;67425;52.126;20.638;2023-04-19T00:50:46;2.92;;;2.65;;
55993;SDS011;67425;52.126;20.638;2023-04-19T00:53:11;3.90;;;3.50;;
55993;SDS011;67425;52.126;20.638;2023-04-19T00:55:37;3.08;;;2.40;;
55993;SDS011;67425;52.126;20.638;2023-04-19T00:58:07;11.02;;;5.82;;
55993;SDS011;67425;52.126;20.638;2023-04-19T01:00:33;3.65;;;2.65;;
55993;SDS011;67425;52.126;20.638;2023-04-19T01:02:59;5.93;;;4.30;;
55993;SDS011;67425;52.126;20.638;2023-04-19T01:05:25;6.57;;;4.40;;
55993;SDS011;67425;52.126;20.638;2023-04-19T01:07:50;6.43;;;4.63;;
55993;SDS011;67425;52.126;20.638;2023-04-19T01:10:16;7.80;;;5.97;;
55993;SDS011;67425;52.126;20.638;2023-04-19T01:12:42;7.47;;;5.13;;
55993;SDS011;67425;52.126;20.638;2023-04-19T01:15:07;6.80;;;4.38;;
55993;SDS011;67425;52.126;20.638;2023-04-19T01:17:33;4.57;;;3.05;;
55993;SDS011;67425;52.126;20.638;2023-04-19T01:20:04;7.40;;;4.00;;
55993;SDS011;67425;52.126;20.638;2023-04-19T01:22:31;4.20;;;3.38;;
55993;SDS011;67425;52.126;20.638;2023-04-19T01:24:57;14.63;;;5.03;;
55993;SDS011;67425;52.126;20.638;2023-04-19T01:27:22;8.93;;;5.07;;
55993;SDS011;67425;52.126;20.638;2023-04-19T01:29:48;7.03;;;4.78;;
55993;SDS011;67425;52.126;20.638;2023-04-19T01:32:14;9.13;;;5.35;;
55993;SDS011;67425;52.126;20.638;2023-04-19T01:34:39;6.97;;;5.13;;
55993;SDS011;67425;52.126;20.638;2023-04-19T01:37:06;8.30;;;5.15;;
55993;SDS011;67425;52.126;20.638;2023-04-19T01:39:32;5.47;;;3.28;;
55993;SDS011;67425;52.126;20.638;2023-04-19T01:41:57;5.60;;;5.03;;
55993;SDS011;67425;52.126;20.638;2023-04-19T01:44:22;7.85;;;5.53;;
55993;SDS011;67425;52.126;20.638;2023-04-19T01:46:48;6.97;;;5.53;;
55993;SDS011;67425;52.126;20.638;2023-04-19T01:49:13;6.97;;;5.38;;
55993;SDS011;67425;52.126;20.638;2023-04-19T01:51:38;9.05;;;6.20;;
55993;SDS011;67425;52.126;20.638;2023-04-19T01:54:04;11.20;;;5.82;;
55993;SDS011;67425;52.126;20.638;2023-04-19T01:56:29;8.38;;;5.90;;
55993;SDS011;67425;52.126;20.638;2023-04-19T01:58:55;12.10;;;6.20;;
55993;SDS011;67425;52.126;20.638;2023-04-19T02:01:20;8.55;;;5.82;;
55993;SDS011;67425;52.126;20.638;2023-04-19T02:03:46;8.35;;;4.85;;
55993;SDS011;67425;52.126;20.638;2023-04-19T02:06:12;9.02;;;6.22;;
55993;SDS011;67425;52.126;20.638;2023-04-19T02:08:41;6.50;;;4.93;;
55993;SDS011;67425;52.126;20.638;2023-04-19T02:11:07;9.25;;;5.15;;
55993;SDS011;67425;52.126;20.638;2023-04-19T02:13:33;10.02;;;5.53;;
55993;SDS011;67425;52.126;20.638;2023-04-19T02:15:58;4.82;;;4.28;;
55993;SDS011;67425;52.126;20.638;2023-04-19T02:18:26;5.70;;;3.58;;
55993;SDS011;67425;52.126;20.638;2023-04-19T02:20:53;2.22;;;2.03;;
55993;SDS011;67425;52.126;20.638;2023-04-19T02:23:19;5.00;;;3.97;;
55993;SDS011;67425;52.126;20.638;2023-04-19T02:25:45;6.53;;;4.63;;
55993;SDS011;67425;52.126;20.638;2023-04-19T02:28:10;11.27;;;7.32;;
55993;SDS011;67425;52.126;20.638;2023-04-19T02:30:36;6.43;;;5.78;;
55993;SDS011;67425;52.126;20.638;2023-04-19T02:33:01;10.10;;;6.70;;
55993;SDS011;67425;52.126;20.638;2023-04-19T02:35:27;8.55;;;6.53;;
55993;SDS011;67425;52.126;20.638;2023-04-19T02:37:52;3.92;;;3.15;;
55993;SDS011;67425;52.126;20.638;2023-04-19T02:40:18;15.98;;;6.00;;
55993;SDS011;67425;52.126;20.638;2023-04-19T02:42:43;3.05;;;2.80;;
55993;SDS011;67425;52.126;20.638;2023-04-19T02:45:08;8.45;;;4.60;;
55993;SDS011;67425;52.126;20.638;2023-04-19T02:47:34;12.00;;;6.40;;
55993;SDS011;67425;52.126;20.638;2023-04-19T02:50:00;7.68;;;3.55;;
55993;SDS011;67425;52.126;20.638;2023-04-19T02:52:25;8.93;;;4.85;;
55993;SDS011;67425;52.126;20.638;2023-04-19T02:54:51;5.53;;;4.60;;
55993;SDS011;67425;52.126;20.638;2023-04-19T02:57:17;6.03;;;4.78;;
55993;SDS011;67425;52.126;20.638;2023-04-19T02:59:42;6.78;;;5.20;;
55993;SDS011;67425;52.126;20.638;2023-04-19T03:02:07;7.63;;;5.50;;
55993;SDS011;67425;52.126;20.638;2023-04-19T03:04:33;7.55;;;5.57;;
55993;SDS011;67425;52.126;20.638;2023-04-19T03:06:58;4.75;;;3.33;;
55993;SDS011;67425;52.126;20.638;2023-04-19T03:09:23;8.88;;;6.53;;
55993;SDS011;67425;52.126;20.638;2023-04-19T03:11:49;6.32;;;5.72;;
55993;SDS011;67425;52.126;20.638;2023-04-19T03:14:15;12.85;;;7.40;;
55993;SDS011;67425;52.126;20.638;2023-04-19T03:16:40;11.35;;;6.82;;
55993;SDS011;67425;52.126;20.638;2023-04-19T03:19:05;5.25;;;3.30;;
55993;SDS011;67425;52.126;20.638;2023-04-19T03:21:31;8.00;;;6.75;;
55993;SDS011;67425;52.126;20.638;2023-04-19T03:23:56;7.38;;;5.85;;
55993;SDS011;67425;52.126;20.638;2023-04-19T03:26:21;4.22;;;3.78;;
55993;SDS011;67425;52.126;20.638;2023-04-19T03:28:47;12.30;;;8.18;;
55993;SDS011;67425;52.126;20.638;2023-04-19T03:31:12;4.38;;;3.80;;
55993;SDS011;67425;52.126;20.638;2023-04-19T03:33:38;6.82;;;5.60;;
55993;SDS011;67425;52.126;20.638;2023-04-19T03:36:04;10.95;;;6.95;;
55993;SDS011;67425;52.126;20.638;2023-04-19T03:38:29;5.80;;;5.25;;
55993;SDS011;67425;52.126;20.638;2023-04-19T03:40:55;16.15;;;8.40;;
55993;SDS011;67425;52.126;20.638;2023-04-19T03:43:21;9.02;;;5.70;;
55993;SDS011;67425;52.126;20.638;2023-04-19T03:45:48;6.05;;;3.10;;
55993;SDS011;67425;52.126;20.638;2023-04-19T03:48:13;7.05;;;5.53;;
55993;SDS011;67425;52.126;20.638;2023-04-19T03:50:39;9.48;;;6.00;;
55993;SDS011;67425;52.126;20.638;2023-04-19T03:53:04;13.30;;;5.82;;
55993;SDS011;67425;52.126;20.638;2023-04-19T03:55:30;2.70;;;2.55;;
55993;SDS011;67425;52.126;20.638;2023-04-19T03:57:55;8.63;;;5.88;;
55993;SDS011;67425;52.126;20.638;2023-04-19T04:00:21;7.63;;;4.20;;
55993;SDS011;67425;52.126;20.638;2023-04-19T04:02:46;8.57;;;5.28;;
55993;SDS011;67425;52.126;20.638;2023-04-19T04:05:12;9.73;;;7.18;;
55993;SDS011;67425;52.126;20.638;2023-04-19T04:07:37;9.23;;;7.05;;
55993;SDS011;67425;52.126;20.638;2023-04-19T04:10:03;12.55;;;7.35;;
55993;SDS011;67425;52.126;20.638;2023-04-19T04:12:28;7.97;;;5.45;;
55993;SDS011;67425;52.126;20.638;2023-04-19T04:14:54;7.15;;;5.20;;
55993;SDS011;67425;52.126;20.638;2023-04-19T04:17:19;8.15;;;4.57;;
55993;SDS011;67425;52.126;20.638;2023-04-19T04:19:45;8.48;;;5.32;;
55993;SDS011;67425;52.126;20.638;2023-04-19T04:22:10;8.65;;;6.80;;
55993;SDS011;67425;52.126;20.638;2023-04-19T04:24:39;11.73;;;7.82;;
55993;SDS011;67425;52.126;20.638;2023-04-19T04:27:06;11.30;;;7.35;;
55993;SDS011;67425;52.126;20.638;2023-04-19T04:29:34;10.68;;;6.20;;
55993;SDS011;67425;52.126;20.638;2023-04-19T04:32:04;7.85;;;5.35;;
55993;SDS011;67425;52.126;20.638;2023-04-19T04:34:32;5.82;;;5.00;;
55993;SDS011;67425;52.126;20.638;2023-04-19T04:36:57;11.05;;;6.53;;
55993;SDS011;67425;52.126;20.638;2023-04-19T04:39:23;9.98;;;7.32;;
55993;SDS011;67425;52.126;20.638;2023-04-19T04:41:48;4.45;;;3.88;;
55993;SDS011;67425;52.126;20.638;2023-04-19T04:44:15;12.10;;;6.93;;
55993;SDS011;67425;52.126;20.638;2023-04-19T04:46:41;13.30;;;6.25;;
55993;SDS011;67425;52.126;20.638;2023-04-19T04:49:06;7.18;;;4.78;;
55993;SDS011;67425;52.126;20.638;2023-04-19T04:51:31;9.38;;;4.00;;
55993;SDS011;67425;52.126;20.638;2023-04-19T04:53:57;8.43;;;6.00;;
55993;SDS011;67425;52.126;20.638;2023-04-19T04:56:23;10.10;;;4.88;;
55993;SDS011;67425;52.126;20.638;2023-04-19T04:58:49;14.18;;;8.07;;
55993;SDS011;67425;52.126;20.638;2023-04-19T05:01:15;11.55;;;3.78;;
55993;SDS011;67425;52.126;20.638;2023-04-19T05:03:43;5.00;;;3.20;;
55993;SDS011;67425;52.126;20.638;2023-04-19T05:06:08;10.85;;;5.15;;
55993;SDS011;67425;52.126;20.638;2023-04-19T05:08:34;7.22;;;4.28;;
55993;SDS011;67425;52.126;20.638;2023-04-19T05:10:59;7.13;;;5.57;;
55993;SDS011;67425;52.126;20.638;2023-04-19T05:13:24;6.00;;;2.03;;
55993;SDS011;67425;52.126;20.638;2023-04-19T05:15:50;8.10;;;5.03;;
55993;SDS011;67425;52.126;20.638;2023-04-19T05:18:15;9.80;;;5.95;;
55993;SDS011;67425;52.126;20.638;2023-04-19T05:20:40;9.63;;;7.22;;
55993;SDS011;67425;52.126;20.638;2023-04-19T05:23:06;15.35;;;7.07;;
55993;SDS011;67425;52.126;20.638;2023-04-19T05:25:32;7.60;;;5.25;;
55993;SDS011;67425;52.126;20.638;2023-04-19T05:27:57;11.50;;;3.65;;
55993;SDS011;67425;52.126;20.638;2023-04-19T05:30:23;6.43;;;3.97;;
55993;SDS011;67425;52.126;20.638;2023-04-19T05:32:48;9.15;;;5.65;;
55993;SDS011;67425;52.126;20.638;2023-04-19T05:35:13;5.85;;;3.17;;
55993;SDS011;67425;52.126;20.638;2023-04-19T05:37:39;16.25;;;9.05;;
55993;SDS011;67425;52.126;20.638;2023-04-19T05:40:06;11.73;;;6.40;;
55993;SDS011;67425;52.126;20.638;2023-04-19T05:42:35;12.60;;;7.88;;
55993;SDS011;67425;52.126;20.638;2023-04-19T05:45:01;4.07;;;3.67;;
55993;SDS011;67425;52.126;20.638;2023-04-19T05:47:26;7.10;;;5.43;;
55993;SDS011;67425;52.126;20.638;2023-04-19T05:49:51;10.68;;;5.22;;
55993;SDS011;67425;52.126;20.638;2023-04-19T05:52:17;6.40;;;5.05;;
55993;SDS011;67425;52.126;20.638;2023-04-19T05:54:42;5.20;;;4.25;;
55993;SDS011;67425;52.126;20.638;2023-04-19T05:57:08;12.38;;;7.40;;
55993;SDS011;67425;52.126;20.638;2023-04-19T05:59:33;20.40;;;10.20;;
55993;SDS011;67425;52.126;20.638;2023-04-19T06:01:59;18.88;;;8.55;;
55993;SDS011;67425;52.126;20.638;2023-04-19T06:04:25;10.20;;;6.30;;
55993;SDS011;67425;52.126;20.638;2023-04-19T06:06:51;10.38;;;5.45;;
55993;SDS011;67425;52.126;20.638;2023-04-19T06:09:16;6.93;;;5.32;;
55993;SDS011;67425;52.126;20.638;2023-04-19T06:11:43;7.93;;;4.47;;
55993;SDS011;67425;52.126;20.638;2023-04-19T06:14:09;13.75;;;8.95;;
55993;SDS011;67425;52.126;20.638;2023-04-19T06:16:35;9.02;;;5.78;;
55993;SDS011;67425;52.126;20.638;2023-04-19T06:19:00;12.73;;;7.50;;
55993;SDS011;67425;52.126;20.638;2023-04-19T06:21:25;13.73;;;8.25;;
55993;SDS011;67425;52.126;20.638;2023-04-19T06:23:54;9.25;;;5.95;;
55993;SDS011;67425;52.126;20.638;2023-04-19T06:26:20;14.70;;;7.43;;
55993;SDS011;67425;52.126;20.638;2023-04-19T06:28:45;9.75;;;7.35;;
55993;SDS011;67425;52.126;20.638;2023-04-19T06:31:10;15.55;;;7.63;;
55993;SDS011;67425;52.126;20.638;2023-04-19T06:33:36;8.10;;;6.45;;
55993;SDS011;67425;52.126;20.638;2023-04-19T06:36:01;13.52;;;8.27;;
55993;SDS011;67425;52.126;20.638;2023-04-19T06:38:27;12.65;;;7.82;;
55993;SDS011;67425;52.126;20.638;2023-04-19T06:40:53;11.00;;;6.10;;
55993;SDS011;67425;52.126;20.638;2023-04-19T06:43:18;13.57;;;8.02;;
55993;SDS011;67425;52.126;20.638;2023-04-19T06:45:45;9.88;;;6.20;;
55993;SDS011;67425;52.126;20.638;2023-04-19T06:48:10;6.28;;;4.13;;
55993;SDS011;67425;52.126;20.638;2023-04-19T06:50:36;19.80;;;7.38;;
55993;SDS011;67425;52.126;20.638;2023-04-19T06:53:01;9.48;;;6.57;;
55993;SDS011;67425;52.126;20.638;2023-04-19T06:55:27;12.02;;;7.93;;
55993;SDS011;67425;52.126;20.638;2023-04-19T06:57:52;13.05;;;8.02;;
55993;SDS011;67425;52.126;20.638;2023-04-19T07:00:17;11.45;;;7.60;;
55993;SDS011;67425;52.126;20.638;2023-04-19T07:02:43;14.05;;;7.85;;
55993;SDS011;67425;52.126;20.638;2023-04-19T07:05:08;12.75;;;8.15;;
55993;SDS011;67425;52.126;20.638;2023-04-19T07:07:34;16.15;;;9.13;;
55993;SDS011;67425;52.126;20.638;2023-04-19T07:10:01;7.78;;;4.75;;
55993;SDS011;67425;52.126;20.638;2023-04-19T07:12:27;6.57;;;5.47;;
55993;SDS011;67425;52.126;20.638;2023-04-19T07:14:52;12.65;;;8.32;;
55993;SDS011;67425;52.126;20.638;2023-04-19T07:17:20;15.93;;;7.78;;
55993;SDS011;67425;52.126;20.638;2023-04-19T07:19:46;13.45;;;9.52;;
55993;SDS011;67425;52.126;20.638;2023-04-19T07:22:13;18.27;;;9.40;;
55993;SDS011;67425;52.126;20.638;2023-04-19T07:24:38;10.57;;;6.10;;
55993;SDS011;67425;52.126;20.638;2023-04-19T07:27:05;12.13;;;6.70;;
55993;SDS011;67425;52.126;20.638;2023-04-19T07:29:33;9.90;;;7.65;;
55993;SDS011;67425;52.126;20.638;2023-04-19T07:31:59;13.43;;;8.25;;
55993;SDS011;67425;52.126;20.638;2023-04-19T07:34:25;16.60;;;9.38;;
55993;SDS011;67425;52.126;20.638;2023-04-19T07:36:51;16.17;;;9.35;;
55993;SDS011;67425;52.126;20.638;2023-04-19T07:39:16;13.70;;;7.65;;
55993;SDS011;67425;52.126;20.638;2023-04-19T07:41:42;18.25;;;9.30;;
55993;SDS011;67425;52.126;20.638;2023-04-19T07:44:08;17.60;;;7.80;;
55993;SDS011;67425;52.126;20.638;2023-04-19T07:46:35;14.45;;;10.10;;
55993;SDS011;67425;52.126;20.638;2023-04-19T07:49:00;14.85;;;7.07;;
55993;SDS011;67425;52.126;20.638;2023-04-19T07:51:26;12.57;;;8.52;;
55993;SDS011;67425;52.126;20.638;2023-04-19T07:53:51;10.98;;;7.70;;
55993;SDS011;67425;52.126;20.638;2023-04-19T07:56:16;21.63;;;7.43;;
55993;SDS011;67425;52.126;20.638;2023-04-19T07:58:43;14.57;;;8.20;;
55993;SDS011;67425;52.126;20.638;2023-04-19T08:01:09;13.02;;;7.35;;
55993;SDS011;67425;52.126;20.638;2023-04-19T08:03:34;25.70;;;10.68;;
55993;SDS011;67425;52.126;20.638;2023-04-19T08:06:01;15.18;;;8.23;;
55993;SDS011;67425;52.126;20.638;2023-04-19T08:08:27;6.80;;;5.03;;
55993;SDS011;67425;52.126;20.638;2023-04-19T08:10:52;15.30;;;9.50;;
55993;SDS011;67425;52.126;20.638;2023-04-19T08:13:20;16.38;;;10.88;;
55993;SDS011;67425;52.126;20.638;2023-04-19T08:15:46;9.73;;;7.13;;
55993;SDS011;67425;52.126;20.638;2023-04-19T08:18:11;11.02;;;7.47;;
55993;SDS011;67425;52.126;20.638;2023-04-19T08:20:36;17.90;;;11.82;;
55993;SDS011;67425;52.126;20.638;2023-04-19T08:23:02;16.83;;;9.52;;
55993;SDS011;67425;52.126;20.638;2023-04-19T08:25:27;7.80;;;5.35;;
55993;SDS011;67425;52.126;20.638;2023-04-19T08:27:55;13.68;;;9.25;;
55993;SDS011;67425;52.126;20.638;2023-04-19T08:30:22;14.35;;;9.38;;
55993;SDS011;67425;52.126;20.638;2023-04-19T08:32:48;18.50;;;12.45;;
55993;SDS011;67425;52.126;20.638;2023-04-19T08:35:14;21.05;;;11.05;;
55993;SDS011;67425;52.126;20.638;2023-04-19T08:37:40;16.35;;;9.18;;
55993;SDS011;67425;52.126;20.638;2023-04-19T08:40:06;20.77;;;10.52;;
55993;SDS011;67425;52.126;20.638;2023-04-19T08:42:32;4.90;;;4.32;;
55993;SDS011;67425;52.126;20.638;2023-04-19T08:44:59;16.70;;;9.98;;
55993;SDS011;67425;52.126;20.638;2023-04-19T08:47:27;12.20;;;4.22;;
55993;SDS011;67425;52.126;20.638;2023-04-19T08:49:54;19.05;;;11.48;;
55993;SDS011;67425;52.126;20.638;2023-04-19T08:52:21;20.50;;;10.70;;
55993;SDS011;67425;52.126;20.638;2023-04-19T08:54:48;21.17;;;11.60;;
55993;SDS011;67425;52.126;20.638;2023-04-19T08:57:14;12.43;;;7.47;;
55993;SDS011;67425;52.126;20.638;2023-04-19T08:59:39;18.23;;;12.05;;
55993;SDS011;67425;52.126;20.638;2023-04-19T09:02:05;18.65;;;10.93;;
55993;SDS011;67425;52.126;20.638;2023-04-19T09:04:31;15.70;;;10.35;;
55993;SDS011;67425;52.126;20.638;2023-04-19T09:06:56;19.05;;;11.77;;
55993;SDS011;67425;52.126;20.638;2023-04-19T09:09:23;19.65;;;12.77;;
55993;SDS011;67425;52.126;20.638;2023-04-19T09:11:50;26.52;;;13.20;;
55993;SDS011;67425;52.126;20.638;2023-04-19T09:14:16;25.95;;;13.55;;
55993;SDS011;67425;52.126;20.638;2023-04-19T09:16:44;21.45;;;13.15;;
55993;SDS011;67425;52.126;20.638;2023-04-19T09:19:09;26.73;;;13.05;;
55993;SDS011;67425;52.126;20.638;2023-04-19T09:21:40;24.63;;;11.38;;
55993;SDS011;67425;52.126;20.638;2023-04-19T09:24:06;22.73;;;13.23;;
55993;SDS011;67425;52.126;20.638;2023-04-19T09:26:32;22.13;;;12.32;;
55993;SDS011;67425;52.126;20.638;2023-04-19T09:28:58;9.98;;;7.47;;
55993;SDS011;67425;52.126;20.638;2023-04-19T09:31:30;21.92;;;12.65;;
55993;SDS011;67425;52.126;20.638;2023-04-19T09:33:56;43.67;;;14.02;;
55993;SDS011;67425;52.126;20.638;2023-04-19T09:36:40;26.75;;;13.45;;
55993;SDS011;67425;52.126;20.638;2023-04-19T09:39:06;20.40;;;9.45;;
55993;SDS011;67425;52.126;20.638;2023-04-19T09:41:32;19.75;;;12.05;;
55993;SDS011;67425;52.126;20.638;2023-04-19T09:44:10;19.48;;;11.38;;
55993;SDS011;67425;52.126;20.638;2023-04-19T09:46:37;22.67;;;11.80;;
55993;SDS011;67425;52.126;20.638;2023-04-19T09:49:20;24.50;;;13.55;;
55993;SDS011;67425;52.126;20.638;2023-04-19T09:51:52;19.10;;;11.70;;
55993;SDS011;67425;52.126;20.638;2023-04-19T09:54:18;23.73;;;11.90;;
55993;SDS011;67425;52.126;20.638;2023-04-19T09:56:45;19.77;;;13.02;;
55993;SDS011;67425;52.126;20.638;2023-04-19T09:59:11;24.00;;;10.88;;
55993;SDS011;67425;52.126;20.638;2023-04-19T10:04:03;20.65;;;13.30;;
55993;SDS011;67425;52.126;20.638;2023-04-19T10:06:33;19.65;;;12.02;;
55993;SDS011;67425;52.126;20.638;2023-04-19T10:09:00;18.40;;;11.85;;
55993;SDS011;67425;52.126;20.638;2023-04-19T10:11:32;15.68;;;10.73;;
55993;SDS011;67425;52.126;20.638;2023-04-19T10:14:05;23.73;;;13.20;;
55993;SDS011;67425;52.126;20.638;2023-04-19T10:16:35;21.42;;;11.75;;
55993;SDS011;67425;52.126;20.638;2023-04-19T10:19:03;22.70;;;13.52;;
55993;SDS011;67425;52.126;20.638;2023-04-19T10:21:32;29.50;;;11.20;;
55993;SDS011;67425;52.126;20.638;2023-04-19T10:23:58;19.35;;;12.10;;
55993;SDS011;67425;52.126;20.638;2023-04-19T10:26:24;20.45;;;12.55;;
55993;SDS011;67425;52.126;20.638;2023-04-19T10:28:50;20.88;;;12.15;;
55993;SDS011;67425;52.126;20.638;2023-04-19T10:31:18;24.08;;;11.68;;
55993;SDS011;67425;52.126;20.638;2023-04-19T10:33:48;19.52;;;12.45;;
55993;SDS011;67425;52.126;20.638;2023-04-19T10:36:14;18.90;;;12.10;;
55993;SDS011;67425;52.126;20.638;2023-04-19T10:38:45;26.60;;;11.02;;
55993;SDS011;67425;52.126;20.638;2023-04-19T10:41:19;23.85;;;11.90;;
55993;SDS011;67425;52.126;20.638;2023-04-19T10:51:18;17.92;;;12.00;;
55993;SDS011;67425;52.126;20.638;2023-04-19T10:56:16;24.10;;;13.75;;
55993;SDS011;67425;52.126;20.638;2023-04-19T11:01:46;26.45;;;13.90;;
55993;SDS011;67425;52.126;20.638;2023-04-19T11:04:17;30.23;;;12.68;;
55993;SDS011;67425;52.126;20.638;2023-04-19T11:12:02;21.10;;;11.80;;
55993;SDS011;67425;52.126;20.638;2023-04-19T11:14:34;22.77;;;12.60;;
55993;SDS011;67425;52.126;20.638;2023-04-19T11:17:02;25.30;;;11.48;;
55993;SDS011;67425;52.126;20.638;2023-04-19T11:19:38;20.13;;;12.02;;
55993;SDS011;67425;52.126;20.638;2023-04-19T11:22:03;23.83;;;11.82;;
55993;SDS011;67425;52.126;20.638;2023-04-19T11:24:29;20.52;;;12.80;;
55993;SDS011;67425;52.126;20.638;2023-04-19T11:26:54;25.17;;;12.90;;
55993;SDS011;67425;52.126;20.638;2023-04-19T11:29:21;19.30;;;11.95;;
55993;SDS011;67425;52.126;20.638;2023-04-19T11:31:47;18.27;;;11.43;;
55993;SDS011;67425;52.126;20.638;2023-04-19T11:34:12;23.52;;;13.63;;
55993;SDS011;67425;52.126;20.638;2023-04-19T11:36:47;25.02;;;13.55;;
55993;SDS011;67425;52.126;20.638;2023-04-19T11:39:14;25.50;;;13.23;;
55993;SDS011;67425;52.126;20.638;2023-04-19T11:41:39;23.00;;;12.55;;
55993;SDS011;67425;52.126;20.638;2023-04-19T11:44:17;30.67;;;12.52;;
55993;SDS011;67425;52.126;20.638;2023-04-19T11:47:01;23.58;;;13.18;;
55993;SDS011;67425;52.126;20.638;2023-04-19T11:49:29;27.37;;;13.10;;
55993;SDS011;67425;52.126;20.638;2023-04-19T11:51:59;21.52;;;12.35;;
55993;SDS011;67425;52.126;20.638;2023-04-19T11:54:26;24.88;;;13.45;;
55993;SDS011;67425;52.126;20.638;2023-04-19T11:56:55;23.75;;;12.30;;
55993;SDS011;67425;52.126;20.638;2023-04-19T11:59:21;18.42;;;10.88;;
55993;SDS011;67425;52.126;20.638;2023-04-19T12:01:47;13.77;;;8.88;;
55993;SDS011;67425;52.126;20.638;2023-04-19T12:04:12;7.75;;;6.47;;
55993;SDS011;67425;52.126;20.638;2023-04-19T12:06:37;23.48;;;9.15;;
55993;SDS011;67425;52.126;20.638;2023-04-19T12:09:05;11.52;;;8.07;;
55993;SDS011;67425;52.126;20.638;2023-04-19T12:11:43;12.95;;;9.43;;
55993;SDS011;67425;52.126;20.638;2023-04-19T12:14:13;13.77;;;9.52;;
55993;SDS011;67425;52.126;20.638;2023-04-19T12:16:39;12.38;;;8.50;;
55993;SDS011;67425;52.126;20.638;2023-04-19T12:19:15;13.65;;;8.93;;
55993;SDS011;67425;52.126;20.638;2023-04-19T12:21:42;11.73;;;8.07;;
55993;SDS011;67425;52.126;20.638;2023-04-19T12:24:08;13.35;;;8.52;;
55993;SDS011;67425;52.126;20.638;2023-04-19T12:26:33;21.85;;;9.15;;
55993;SDS011;67425;52.126;20.638;2023-04-19T12:29:00;20.33;;;8.25;;
55993;SDS011;67425;52.126;20.638;2023-04-19T12:31:27;13.77;;;9.40;;
55993;SDS011;67425;52.126;20.638;2023-04-19T12:33:52;9.38;;;5.25;;
55993;SDS011;67425;52.126;20.638;2023-04-19T12:36:18;13.55;;;8.38;;
55993;SDS011;67425;52.126;20.638;2023-04-19T12:38:44;12.88;;;8.00;;
55993;SDS011;67425;52.126;20.638;2023-04-19T12:41:09;15.15;;;8.55;;
55993;SDS011;67425;52.126;20.638;2023-04-19T12:43:35;13.48;;;7.80;;
55993;SDS011;67425;52.126;20.638;2023-04-19T12:46:00;13.98;;;7.28;;
55993;SDS011;67425;52.126;20.638;2023-04-19T12:48:26;13.65;;;8.07;;
55993;SDS011;67425;52.126;20.638;2023-04-19T12:50:51;12.77;;;8.05;;
55993;SDS011;67425;52.126;20.638;2023-04-19T12:53:17;8.90;;;7.50;;
55993;SDS011;67425;52.126;20.638;2023-04-19T12:55:43;16.60;;;7.22;;
55993;SDS011;67425;52.126;20.638;2023-04-19T12:58:13;17.13;;;8.57;;
55993;SDS011;67425;52.126;20.638;2023-04-19T13:00:38;9.93;;;7.35;;
55993;SDS011;67425;52.126;20.638;2023-04-19T13:03:04;9.90;;;7.82;;
55993;SDS011;67425;52.126;20.638;2023-04-19T13:05:29;12.93;;;7.75;;
55993;SDS011;67425;52.126;20.638;2023-04-19T13:07:55;10.68;;;8.25;;
55993;SDS011;67425;52.126;20.638;2023-04-19T13:10:20;13.80;;;8.70;;
55993;SDS011;67425;52.126;20.638;2023-04-19T13:12:45;15.77;;;8.68;;
55993;SDS011;67425;52.126;20.638;2023-04-19T13:15:11;21.70;;;9.50;;
55993;SDS011;67425;52.126;20.638;2023-04-19T13:17:36;17.42;;;9.18;;
55993;SDS011;67425;52.126;20.638;2023-04-19T13:20:02;13.68;;;9.23;;
55993;SDS011;67425;52.126;20.638;2023-04-19T13:22:28;20.02;;;9.02;;
55993;SDS011;67425;52.126;20.638;2023-04-19T13:24:53;14.75;;;8.85;;
55993;SDS011;67425;52.126;20.638;2023-04-19T13:27:18;27.05;;;9.80;;
55993;SDS011;67425;52.126;20.638;2023-04-19T13:29:44;16.27;;;8.27;;
55993;SDS011;67425;52.126;20.638;2023-04-19T13:32:10;11.40;;;8.25;;
55993;SDS011;67425;52.126;20.638;2023-04-19T13:34:36;11.15;;;7.72;;
55993;SDS011;67425;52.126;20.638;2023-04-19T13:37:02;18.42;;;7.97;;
55993;SDS011;67425;52.126;20.638;2023-04-19T13:39:27;12.95;;;8.70;;
55993;SDS011;67425;52.126;20.638;2023-04-19T13:41:53;14.30;;;7.82;;
55993;SDS011;67425;52.126;20.638;2023-04-19T13:44:18;12.35;;;7.25;;
55993;SDS011;67425;52.126;20.638;2023-04-19T13:46:43;11.90;;;6.93;;
55993;SDS011;67425;52.126;20.638;2023-04-19T13:49:08;12.48;;;7.45;;
55993;SDS011;67425;52.126;20.638;2023-04-19T13:51:34;7.22;;;6.10;;
55993;SDS011;67425;52.126;20.638;2023-04-19T13:53:59;12.82;;;7.40;;
55993;SDS011;67425;52.126;20.638;2023-04-19T13:56:25;7.75;;;6.85;;
55993;SDS011;67425;52.126;20.638;2023-04-19T13:58:51;12.27;;;7.88;;
55993;SDS011;67425;52.126;20.638;2023-04-19T14:01:16;7.72;;;6.28;;
55993;SDS011;67425;52.126;20.638;2023-04-19T14:03:41;13.73;;;6.55;;
55993;SDS011;67425;52.126;20.638;2023-04-19T14:06:07;9.27;;;7.07;;
55993;SDS011;67425;52.126;20.638;2023-04-19T14:08:32;13.68;;;7.40;;
55993;SDS011;67425;52.126;20.638;2023-04-19T14:10:57;14.18;;;7.25;;
55993;SDS011;67425;52.126;20.638;2023-04-19T14:13:23;7.80;;;5.75;;
55993;SDS011;67425;52.126;20.638;2023-04-19T14:15:48;18.75;;;6.78;;
55993;SDS011;67425;52.126;20.638;2023-04-19T14:18:14;11.07;;;7.55;;
55993;SDS011;67425;52.126;20.638;2023-04-19T14:20:39;12.98;;;7.95;;
55993;SDS011;67425;52.126;20.638;2023-04-19T14:23:04;12.85;;;7.85;;
55993;SDS011;67425;52.126;20.638;2023-04-19T14:25:31;12.52;;;7.47;;
55993;SDS011;67425;52.126;20.638;2023-04-19T14:27:57;10.70;;;7.97;;
55993;SDS011;67425;52.126;20.638;2023-04-19T14:30:23;11.90;;;8.07;;
55993;SDS011;67425;52.126;20.638;2023-04-19T14:32:50;13.93;;;8.20;;
55993;SDS011;67425;52.126;20.638;2023-04-19T14:35:16;13.70;;;8.40;;
55993;SDS011;67425;52.126;20.638;2023-04-19T14:37:41;16.65;;;6.78;;
55993;SDS011;67425;52.126;20.638;2023-04-19T14:40:06;9.23;;;6.05;;